Time;durP1;ratioP1;P1;durP2;ratioP2;P2;SDS_P1;SDS_P2;PMS_P1;PMS_P2;Temp;Humidity;BMP_temperature;BMP_pressure;BME280_temperature;BME280_humidity;BME280_pressure;Samples;Min_cycle;Max_cycle;Signal;HPM_P1;HPM_P2
2021/09/20 00:01:45;;;;;;;3.33;2.55;;;;;;;;;;5033122;28;20389;-85
2021/09/20 00:04:10;;;;;;;3.30;2.23;;;;;;;;;;5032333;28;20094;-85
2021/09/20 00:06:35;;;;;;;3.07;2.37;;;;;;;;;;5032542;28;20029;-85
2021/09/20 00:09:01;;;;;;;3.88;2.10;;;;;;;;;;5031574;28;20259;-85
2021/09/20 00:11:26;;;;;;;3.72;2.53;;;;;;;;;;5031782;28;20029;-85
2021/09/20 00:13:52;;;;;;;4.15;2.20;;;;;;;;;;5032724;28;20065;-85
2021/09/20 00:16:17;;;;;;;3.22;2.05;;;;;;;;;;5032643;28;20060;-85
2021/09/20 00:18:42;;;;;;;3.42;2.25;;;;;;;;;;5031212;28;20610;-85
2021/09/20 00:21:08;;;;;;;4.47;2.38;;;;;;;;;;5033872;28;20484;-85
2021/09/20 00:23:33;;;;;;;3.63;2.55;;;;;;;;;;5030616;28;20029;-85
2021/09/20 00:25:59;;;;;;;3.47;2.30;;;;;;;;;;5032646;28;20017;-85
2021/09/20 00:28:25;;;;;;;4.35;2.45;;;;;;;;;;5032456;28;20022;-85
2021/09/20 00:30:50;;;;;;;3.10;2.38;;;;;;;;;;5032239;28;20071;-85
2021/09/20 00:33:16;;;;;;;6.13;3.17;;;;;;;;;;5031015;28;20030;-85
2021/09/20 00:35:41;;;;;;;2.55;2.35;;;;;;;;;;5032604;28;20045;-85
2021/09/20 00:38:06;;;;;;;2.28;1.95;;;;;;;;;;5033458;28;20029;-85
2021/09/20 00:40:32;;;;;;;4.93;2.15;;;;;;;;;;5031974;28;20091;-85
2021/09/20 00:42:57;;;;;;;2.65;2.25;;;;;;;;;;5030618;28;20021;-85
2021/09/20 00:45:23;;;;;;;2.92;2.22;;;;;;;;;;5032058;28;20096;-85
2021/09/20 00:47:48;;;;;;;7.72;2.47;;;;;;;;;;5030884;28;20029;-85
2021/09/20 00:50:13;;;;;;;5.50;2.97;;;;;;;;;;5032030;28;20118;-85
2021/09/20 00:52:38;;;;;;;4.45;2.35;;;;;;;;;;5030490;28;20739;-85
2021/09/20 00:55:05;;;;;;;3.38;2.22;;;;;;;;;;5032808;28;20029;-85
2021/09/20 00:57:30;;;;;;;3.75;1.85;;;;;;;;;;5030108;28;20431;-85
2021/09/20 00:59:56;;;;;;;3.08;2.33;;;;;;;;;;5030264;28;20116;-85
2021/09/20 01:02:21;;;;;;;11.63;3.67;;;;;;;;;;5030287;28;20029;-85
2021/09/20 01:04:46;;;;;;;3.35;2.10;;;;;;;;;;5030164;28;20026;-84
2021/09/20 01:07:12;;;;;;;2.80;2.10;;;;;;;;;;5030814;28;20032;-85
2021/09/20 01:09:40;;;;;;;2.78;2.03;;;;;;;;;;5030235;28;20074;-86
2021/09/20 01:12:06;;;;;;;3.47;2.35;;;;;;;;;;5031785;28;20028;-85
2021/09/20 01:14:32;;;;;;;2.50;1.88;;;;;;;;;;5032152;28;20096;-85
2021/09/20 01:16:57;;;;;;;3.28;2.03;;;;;;;;;;5029631;28;20179;-85
2021/09/20 01:19:23;;;;;;;4.60;2.58;;;;;;;;;;5029958;28;20021;-85
2021/09/20 01:21:48;;;;;;;4.07;2.15;;;;;;;;;;5030064;28;20123;-85
2021/09/20 01:24:13;;;;;;;3.67;2.22;;;;;;;;;;5031427;28;20043;-85
2021/09/20 01:26:39;;;;;;;4.53;2.35;;;;;;;;;;5031374;28;20072;-85
2021/09/20 01:29:06;;;;;;;4.07;2.55;;;;;;;;;;5030006;28;20436;-85
2021/09/20 01:31:31;;;;;;;2.78;2.47;;;;;;;;;;5032015;28;20029;-85
2021/09/20 01:33:56;;;;;;;7.07;1.83;;;;;;;;;;5029536;28;20021;-85
2021/09/20 01:36:22;;;;;;;3.00;2.05;;;;;;;;;;5029466;28;20818;-84
2021/09/20 01:38:47;;;;;;;2.30;2.10;;;;;;;;;;5031196;28;20025;-84
2021/09/20 01:41:12;;;;;;;2.60;2.40;;;;;;;;;;5030153;28;20786;-85
2021/09/20 01:43:37;;;;;;;3.67;1.80;;;;;;;;;;5029894;28;20111;-86
2021/09/20 01:46:03;;;;;;;3.85;2.25;;;;;;;;;;5029890;28;20033;-85
2021/09/20 01:48:29;;;;;;;2.17;1.85;;;;;;;;;;5034187;28;20026;-85
2021/09/20 01:50:54;;;;;;;5.72;2.72;;;;;;;;;;5029435;28;20037;-85
2021/09/20 01:53:20;;;;;;;6.15;2.00;;;;;;;;;;5031210;28;20049;-85
2021/09/20 01:55:45;;;;;;;3.15;2.05;;;;;;;;;;5029582;28;20025;-85
2021/09/20 01:58:10;;;;;;;6.67;2.50;;;;;;;;;;5029382;28;20025;-84
2021/09/20 02:00:35;;;;;;;4.72;2.58;;;;;;;;;;5029161;28;20261;-85
2021/09/20 02:03:01;;;;;;;3.17;2.00;;;;;;;;;;5030603;28;20048;-85
2021/09/20 02:05:26;;;;;;;4.82;2.20;;;;;;;;;;5029496;28;20060;-85
2021/09/20 02:07:51;;;;;;;5.70;2.22;;;;;;;;;;5030509;28;20427;-85
2021/09/20 02:10:17;;;;;;;4.30;2.20;;;;;;;;;;5030388;28;20017;-85
2021/09/20 02:12:43;;;;;;;3.53;2.10;;;;;;;;;;5029052;28;20048;-85
2021/09/20 02:15:09;;;;;;;5.30;2.20;;;;;;;;;;5030538;28;20470;-85
2021/09/20 02:17:35;;;;;;;2.17;1.85;;;;;;;;;;5030245;28;20064;-85
2021/09/20 02:20:01;;;;;;;7.10;2.30;;;;;;;;;;5029344;28;20025;-85
2021/09/20 02:22:26;;;;;;;4.13;2.10;;;;;;;;;;5030635;28;20025;-85
2021/09/20 02:24:51;;;;;;;2.30;1.77;;;;;;;;;;5029337;28;20037;-85
2021/09/20 02:27:17;;;;;;;6.45;1.80;;;;;;;;;;5028961;28;20029;-85
2021/09/20 02:29:42;;;;;;;3.00;2.00;;;;;;;;;;5030166;28;20368;-85
2021/09/20 02:32:07;;;;;;;2.00;1.80;;;;;;;;;;5029330;28;20032;-85
2021/09/20 02:34:32;;;;;;;3.05;2.20;;;;;;;;;;5030499;28;20032;-85
2021/09/20 02:36:58;;;;;;;2.50;2.08;;;;;;;;;;5029114;28;20706;-85
2021/09/20 02:39:23;;;;;;;3.03;2.05;;;;;;;;;;5029093;28;20029;-86
2021/09/20 02:41:49;;;;;;;5.45;2.15;;;;;;;;;;5028871;28;20099;-85
2021/09/20 02:44:14;;;;;;;2.42;2.20;;;;;;;;;;5031509;28;20014;-85
2021/09/20 02:46:39;;;;;;;6.38;2.10;;;;;;;;;;5028483;28;20018;-86
2021/09/20 02:49:05;;;;;;;5.18;2.47;;;;;;;;;;5028959;28;20029;-84
2021/09/20 02:51:30;;;;;;;2.50;2.30;;;;;;;;;;5028695;28;20120;-84
2021/09/20 02:53:56;;;;;;;2.67;2.47;;;;;;;;;;5030747;28;20092;-84
2021/09/20 02:56:22;;;;;;;5.78;2.30;;;;;;;;;;5030724;28;20056;-85
2021/09/20 02:58:47;;;;;;;4.15;1.80;;;;;;;;;;5029264;28;20049;-85
2021/09/20 03:01:12;;;;;;;2.70;2.47;;;;;;;;;;5029599;28;20025;-85
2021/09/20 03:03:37;;;;;;;3.10;2.00;;;;;;;;;;5028567;28;20021;-85
2021/09/20 03:06:03;;;;;;;4.30;2.35;;;;;;;;;;5028761;28;20273;-85
2021/09/20 03:08:29;;;;;;;3.72;2.30;;;;;;;;;;5028914;28;20029;-84
2021/09/20 03:10:55;;;;;;;4.80;2.67;;;;;;;;;;5030358;28;20025;-85
2021/09/20 03:13:20;;;;;;;2.38;2.17;;;;;;;;;;5030510;28;20091;-85
2021/09/20 03:15:45;;;;;;;2.65;2.30;;;;;;;;;;5029112;28;20025;-85
2021/09/20 03:18:10;;;;;;;2.60;2.35;;;;;;;;;;5029448;28;20080;-84
2021/09/20 03:20:36;;;;;;;2.50;2.30;;;;;;;;;;5034369;28;20029;-85
2021/09/20 03:23:01;;;;;;;4.82;2.67;;;;;;;;;;5032186;28;20025;-84
2021/09/20 03:25:27;;;;;;;3.10;2.80;;;;;;;;;;5033494;28;20090;-85
2021/09/20 03:27:52;;;;;;;5.40;3.13;;;;;;;;;;5032021;28;20028;-85
2021/09/20 03:30:19;;;;;;;3.45;2.40;;;;;;;;;;5033645;28;20022;-84
2021/09/20 03:32:45;;;;;;;5.28;2.38;;;;;;;;;;5033854;28;20096;-84
2021/09/20 03:35:12;;;;;;;5.07;2.80;;;;;;;;;;5033815;28;20159;-85
2021/09/20 03:37:37;;;;;;;3.17;2.72;;;;;;;;;;5032798;28;20389;-85
2021/09/20 03:40:02;;;;;;;2.88;2.58;;;;;;;;;;5031861;28;20034;-85
2021/09/20 03:42:28;;;;;;;4.95;2.50;;;;;;;;;;5031455;28;20029;-85
2021/09/20 03:44:53;;;;;;;7.35;2.72;;;;;;;;;;5031533;28;20456;-85
2021/09/20 03:47:18;;;;;;;2.38;1.98;;;;;;;;;;5033014;28;20079;-85
2021/09/20 03:49:44;;;;;;;3.80;2.92;;;;;;;;;;5031574;28;20021;-85
2021/09/20 03:52:09;;;;;;;3.35;3.05;;;;;;;;;;5031688;28;20537;-85
2021/09/20 03:54:34;;;;;;;3.05;2.33;;;;;;;;;;5032798;28;20044;-85
2021/09/20 03:57:00;;;;;;;7.13;4.82;;;;;;;;;;5031221;28;20111;-85
2021/09/20 03:59:26;;;;;;;10.82;7.95;;;;;;;;;;5033977;28;20048;-85
2021/09/20 04:01:51;;;;;;;10.98;8.20;;;;;;;;;;5030996;28;20029;-85
2021/09/20 04:04:16;;;;;;;8.85;3.58;;;;;;;;;;5032818;28;20022;-85
2021/09/20 04:06:42;;;;;;;3.35;2.70;;;;;;;;;;5031039;28;20392;-85
2021/09/20 04:09:08;;;;;;;6.13;2.42;;;;;;;;;;5033015;28;20021;-85
2021/09/20 04:11:33;;;;;;;4.05;2.67;;;;;;;;;;5031236;28;20559;-85
2021/09/20 04:13:59;;;;;;;3.83;2.53;;;;;;;;;;5033332;28;20063;-85
2021/09/20 04:16:24;;;;;;;5.78;3.22;;;;;;;;;;5031800;28;20038;-85
2021/09/20 04:18:49;;;;;;;3.10;2.67;;;;;;;;;;5031205;28;20029;-85
2021/09/20 04:21:15;;;;;;;3.97;2.58;;;;;;;;;;5032472;28;20032;-85
2021/09/20 04:23:40;;;;;;;3.20;2.70;;;;;;;;;;5031144;28;20025;-85
2021/09/20 04:26:06;;;;;;;4.70;3.40;;;;;;;;;;5032582;28;20029;-85
2021/09/20 04:28:31;;;;;;;4.03;2.97;;;;;;;;;;5032367;28;20056;-85
2021/09/20 04:30:56;;;;;;;5.63;3.13;;;;;;;;;;5031772;28;20056;-85
2021/09/20 04:33:22;;;;;;;3.17;2.88;;;;;;;;;;5030792;28;20397;-85
2021/09/20 04:35:48;;;;;;;4.68;2.75;;;;;;;;;;5032286;28;20060;-85
2021/09/20 04:38:13;;;;;;;3.90;3.13;;;;;;;;;;5030747;28;20025;-85
2021/09/20 04:40:39;;;;;;;5.03;3.20;;;;;;;;;;5030580;28;20025;-85
2021/09/20 04:43:05;;;;;;;3.17;2.78;;;;;;;;;;5031905;28;20401;-85
2021/09/20 04:45:30;;;;;;;6.30;3.00;;;;;;;;;;5031497;28;20096;-85
2021/09/20 04:47:56;;;;;;;5.88;2.72;;;;;;;;;;5031790;28;20479;-85
2021/09/20 04:50:21;;;;;;;3.17;2.90;;;;;;;;;;5030485;28;20020;-85
2021/09/20 04:52:46;;;;;;;3.65;3.25;;;;;;;;;;5030531;28;20025;-85
2021/09/20 04:55:12;;;;;;;4.38;3.13;;;;;;;;;;5029291;28;20022;-86
2021/09/20 04:57:37;;;;;;;6.18;3.20;;;;;;;;;;5029258;28;20030;-86
2021/09/20 05:00:06;;;;;;;5.35;3.55;;;;;;;;;;5030436;28;20112;-85
2021/09/20 05:02:32;;;;;;;3.17;2.85;;;;;;;;;;5030275;28;20025;-85
2021/09/20 05:04:57;;;;;;;5.13;2.85;;;;;;;;;;5033568;28;20468;-85
2021/09/20 05:07:22;;;;;;;3.80;3.03;;;;;;;;;;5032330;28;20500;-84
2021/09/20 05:09:48;;;;;;;3.60;3.30;;;;;;;;;;5031925;28;20104;-85
2021/09/20 05:12:13;;;;;;;5.82;3.92;;;;;;;;;;5031461;28;20071;-85
2021/09/20 05:14:39;;;;;;;4.38;3.03;;;;;;;;;;5031659;28;20068;-85
2021/09/20 05:17:05;;;;;;;4.60;2.70;;;;;;;;;;5030475;28;20057;-85
2021/09/20 05:19:30;;;;;;;3.78;3.42;;;;;;;;;;5030473;28;20033;-85
2021/09/20 05:21:56;;;;;;;4.00;3.25;;;;;;;;;;5031015;28;20018;-85
2021/09/20 05:24:21;;;;;;;3.97;2.92;;;;;;;;;;5031280;28;20057;-85
2021/09/20 05:26:46;;;;;;;3.38;3.08;;;;;;;;;;5029868;28;20056;-85
2021/09/20 05:29:11;;;;;;;3.15;2.85;;;;;;;;;;5029792;28;20025;-85
2021/09/20 05:31:37;;;;;;;4.70;3.27;;;;;;;;;;5031126;28;20025;-85
2021/09/20 05:34:02;;;;;;;3.50;3.20;;;;;;;;;;5033274;28;20759;-85
2021/09/20 05:36:27;;;;;;;4.68;3.20;;;;;;;;;;5029526;28;20481;-85
2021/09/20 05:38:53;;;;;;;3.63;3.13;;;;;;;;;;5029595;28;20473;-85
2021/09/20 05:41:18;;;;;;;5.55;3.35;;;;;;;;;;5030615;28;20040;-85
2021/09/20 05:43:43;;;;;;;6.47;3.30;;;;;;;;;;5029465;28;20017;-84
2021/09/20 05:46:09;;;;;;;4.57;2.63;;;;;;;;;;5029477;28;20117;-85
2021/09/20 05:48:34;;;;;;;5.70;3.08;;;;;;;;;;5030979;28;20017;-85
2021/09/20 05:50:59;;;;;;;5.05;3.03;;;;;;;;;;5030042;28;20033;-85
2021/09/20 05:53:25;;;;;;;5.65;3.10;;;;;;;;;;5029011;28;20063;-85
2021/09/20 05:55:50;;;;;;;7.65;2.90;;;;;;;;;;5029420;28;20029;-84
2021/09/20 05:58:15;;;;;;;4.50;3.65;;;;;;;;;;5029568;28;20029;-85
2021/09/20 06:00:41;;;;;;;5.70;3.10;;;;;;;;;;5029302;28;20025;-85
2021/09/20 06:03:06;;;;;;;4.85;3.30;;;;;;;;;;5029205;28;20022;-85
2021/09/20 06:05:32;;;;;;;6.20;2.70;;;;;;;;;;5032107;28;20469;-85
2021/09/20 06:07:57;;;;;;;4.38;3.90;;;;;;;;;;5030638;28;20021;-85
2021/09/20 06:10:23;;;;;;;8.23;3.55;;;;;;;;;;5029312;28;20113;-85
2021/09/20 06:12:48;;;;;;;3.90;3.22;;;;;;;;;;5029038;28;20036;-85
2021/09/20 06:15:14;;;;;;;6.13;3.33;;;;;;;;;;5030534;28;20043;-85
2021/09/20 06:17:40;;;;;;;5.28;3.40;;;;;;;;;;5029063;28;20046;-85
2021/09/20 06:20:07;;;;;;;3.60;3.28;;;;;;;;;;5030555;28;20772;-85
2021/09/20 06:22:33;;;;;;;4.75;3.47;;;;;;;;;;5028824;28;20029;-85
2021/09/20 06:24:59;;;;;;;6.18;5.53;;;;;;;;;;5029736;28;20025;-85
2021/09/20 06:27:25;;;;;;;6.50;4.10;;;;;;;;;;5029192;28;20023;-85
2021/09/20 06:29:50;;;;;;;3.97;3.58;;;;;;;;;;5036771;28;20075;-85
2021/09/20 06:32:15;;;;;;;5.10;3.67;;;;;;;;;;5032186;28;20030;-86
2021/09/20 06:34:41;;;;;;;9.20;3.73;;;;;;;;;;5025004;28;20033;-86
2021/09/20 06:37:06;;;;;;;4.10;2.97;;;;;;;;;;5029594;28;20031;-86
2021/09/20 06:39:33;;;;;;;3.65;3.00;;;;;;;;;;5028272;28;20668;-86
2021/09/20 06:41:58;;;;;;;3.85;3.08;;;;;;;;;;5029821;28;20025;-86
2021/09/20 06:44:23;;;;;;;5.47;3.90;;;;;;;;;;5030188;28;20076;-86
2021/09/20 06:46:49;;;;;;;5.53;3.47;;;;;;;;;;5041164;28;20032;-86
2021/09/20 06:49:15;;;;;;;5.75;3.67;;;;;;;;;;5049561;28;20055;-86
2021/09/20 06:51:40;;;;;;;5.70;3.95;;;;;;;;;;5048386;28;20488;-86
2021/09/20 06:54:05;;;;;;;4.60;3.53;;;;;;;;;;5049207;28;20121;-86
2021/09/20 06:56:30;;;;;;;5.07;3.45;;;;;;;;;;5052009;28;20350;-86
2021/09/20 06:58:56;;;;;;;3.78;3.47;;;;;;;;;;5053314;28;20037;-86
2021/09/20 07:01:21;;;;;;;4.78;3.50;;;;;;;;;;5053474;28;20029;-86
2021/09/20 07:03:46;;;;;;;3.87;3.47;;;;;;;;;;5051829;28;20017;-86
2021/09/20 07:06:12;;;;;;;8.70;3.75;;;;;;;;;;5053028;28;20346;-86
2021/09/20 07:08:37;;;;;;;7.00;3.78;;;;;;;;;;5051488;28;20060;-86
2021/09/20 07:11:02;;;;;;;7.00;4.10;;;;;;;;;;5051753;28;20510;-86
2021/09/20 07:13:27;;;;;;;5.17;3.97;;;;;;;;;;5052930;28;20263;-85
2021/09/20 07:15:53;;;;;;;4.27;3.57;;;;;;;;;;5052845;28;20259;-86
2021/09/20 07:18:18;;;;;;;4.97;3.80;;;;;;;;;;5053408;28;20375;-85
2021/09/20 07:20:44;;;;;;;4.10;3.80;;;;;;;;;;5051597;28;20830;-86
2021/09/20 07:23:10;;;;;;;5.70;3.92;;;;;;;;;;5051604;28;20755;-85
2021/09/20 07:25:35;;;;;;;6.05;4.20;;;;;;;;;;5053061;28;20021;-86
2021/09/20 07:28:00;;;;;;;4.40;3.57;;;;;;;;;;5053387;28;20091;-86
2021/09/20 07:30:25;;;;;;;6.95;4.15;;;;;;;;;;5054131;28;20338;-86
2021/09/20 07:32:51;;;;;;;4.40;4.00;;;;;;;;;;5052747;28;20366;-87
2021/09/20 07:35:19;;;;;;;5.93;4.00;;;;;;;;;;5053103;28;20040;-86
2021/09/20 07:37:47;;;;;;;4.80;4.00;;;;;;;;;;5052973;28;20021;-86
2021/09/20 07:40:12;;;;;;;5.55;4.43;;;;;;;;;;5051051;28;20161;-86
2021/09/20 07:42:38;;;;;;;5.80;4.05;;;;;;;;;;5052791;28;20078;-86
2021/09/20 07:45:03;;;;;;;7.03;3.92;;;;;;;;;;5051359;28;20033;-85
2021/09/20 07:47:28;;;;;;;6.18;3.83;;;;;;;;;;5050729;28;20075;-86
2021/09/20 07:49:54;;;;;;;6.30;4.27;;;;;;;;;;5051333;28;20544;-86
2021/09/20 07:52:19;;;;;;;4.70;4.10;;;;;;;;;;5050880;28;20263;-85
2021/09/20 07:54:44;;;;;;;5.35;4.03;;;;;;;;;;5052624;28;20901;-85
2021/09/20 07:57:10;;;;;;;5.20;4.00;;;;;;;;;;5052848;28;20663;-85
2021/09/20 07:59:35;;;;;;;5.72;4.07;;;;;;;;;;5052030;28;20036;-85
2021/09/20 08:02:00;;;;;;;6.32;3.78;;;;;;;;;;5050351;28;20755;-86
2021/09/20 08:04:25;;;;;;;9.47;4.00;;;;;;;;;;5051891;28;20025;-86
2021/09/20 08:06:50;;;;;;;4.77;3.60;;;;;;;;;;5051840;28;20259;-86
2021/09/20 08:09:16;;;;;;;5.67;4.23;;;;;;;;;;5051957;28;20252;-85
2021/09/20 08:11:41;;;;;;;6.43;4.30;;;;;;;;;;5055522;28;20256;-85
2021/09/20 08:14:06;;;;;;;4.55;4.07;;;;;;;;;;5052031;28;20255;-86
2021/09/20 08:16:31;;;;;;;7.07;4.10;;;;;;;;;;5051712;28;20045;-86
2021/09/20 08:18:56;;;;;;;4.77;3.90;;;;;;;;;;5051754;28;20325;-85
2021/09/20 08:21:22;;;;;;;5.70;3.97;;;;;;;;;;5050378;28;20507;-86
2021/09/20 08:23:47;;;;;;;5.38;4.10;;;;;;;;;;5051545;28;20380;-85
2021/09/20 08:26:12;;;;;;;6.40;4.10;;;;;;;;;;5052703;28;20029;-86
2021/09/20 08:28:37;;;;;;;7.35;4.32;;;;;;;;;;5052529;28;20028;-85
2021/09/20 08:31:02;;;;;;;4.10;3.70;;;;;;;;;;5050019;28;20021;-85
2021/09/20 08:33:29;;;;;;;4.88;3.83;;;;;;;;;;5050120;28;20778;-85
2021/09/20 08:35:54;;;;;;;5.22;3.80;;;;;;;;;;5050224;28;20028;-86
2021/09/20 08:38:19;;;;;;;4.95;3.75;;;;;;;;;;5050242;28;20024;-85
2021/09/20 08:40:45;;;;;;;5.28;4.13;;;;;;;;;;5050223;28;20048;-86
2021/09/20 08:43:10;;;;;;;5.47;3.22;;;;;;;;;;5053092;28;20017;-86
2021/09/20 08:45:35;;;;;;;4.03;3.63;;;;;;;;;;5051107;28;20021;-86
2021/09/20 08:48:01;;;;;;;6.00;3.90;;;;;;;;;;5051390;28;20251;-85
2021/09/20 08:50:28;;;;;;;5.72;4.10;;;;;;;;;;5051134;28;20089;-85
2021/09/20 08:52:54;;;;;;;6.80;3.85;;;;;;;;;;5051358;28;20021;-85
2021/09/20 08:55:20;;;;;;;4.15;3.63;;;;;;;;;;5050610;28;20389;-85
2021/09/20 08:57:45;;;;;;;7.50;3.70;;;;;;;;;;5050233;28;20029;-85
2021/09/20 09:00:11;;;;;;;7.27;5.47;;;;;;;;;;5050715;28;20554;-86
2021/09/20 09:02:36;;;;;;;5.68;4.60;;;;;;;;;;5050464;28;20388;-85
2021/09/20 09:05:15;;;;;;;10.00;4.65;;;;;;;;;;5049347;28;20017;-85
2021/09/20 09:07:42;;;;;;;5.88;3.88;;;;;;;;;;5049069;28;20035;-85
2021/09/20 09:10:07;;;;;;;5.75;3.55;;;;;;;;;;5048694;28;20021;-87
2021/09/20 09:12:35;;;;;;;4.10;3.63;;;;;;;;;;5051387;28;20095;-84
2021/09/20 09:15:01;;;;;;;3.97;3.38;;;;;;;;;;5050824;28;20098;-85
2021/09/20 09:17:34;;;;;;;4.82;2.88;;;;;;;;;;5047982;28;20057;-85
2021/09/20 09:20:05;;;;;;;4.72;3.60;;;;;;;;;;5011470;28;20029;-87
2021/09/20 09:22:38;;;;;;;3.53;3.22;;;;;;;;;;5010501;28;20096;-85
2021/09/20 09:25:05;;;;;;;4.07;3.60;;;;;;;;;;5010906;28;20033;-85
2021/09/20 09:27:30;;;;;;;4.72;3.20;;;;;;;;;;5044993;28;20380;-85
2021/09/20 09:30:13;;;;;;;3.20;2.90;;;;;;;;;;5050393;28;20028;-85
2021/09/20 09:32:39;;;;;;;6.22;3.80;;;;;;;;;;5048913;28;20033;-85
2021/09/20 09:35:07;;;;;;;6.85;4.13;;;;;;;;;;5050506;28;20025;-85
2021/09/20 09:37:32;;;;;;;4.40;3.47;;;;;;;;;;5049340;28;20032;-85
2021/09/20 09:40:08;;;;;;;4.28;3.50;;;;;;;;;;5050233;28;20388;-85
2021/09/20 09:42:34;;;;;;;4.47;3.13;;;;;;;;;;5051248;28;20028;-85
2021/09/20 09:45:12;;;;;;;5.38;3.95;;;;;;;;;;5048952;28;20072;-85
2021/09/20 09:47:37;;;;;;;4.35;3.88;;;;;;;;;;5048821;28;20364;-85
2021/09/20 09:50:18;;;;;;;5.18;3.28;;;;;;;;;;5048477;28;20027;-85
2021/09/20 09:52:44;;;;;;;6.82;4.20;;;;;;;;;;5049003;28;20025;-86
2021/09/20 09:55:10;;;;;;;6.05;4.10;;;;;;;;;;5050489;28;20024;-85
2021/09/20 09:57:35;;;;;;;7.43;4.00;;;;;;;;;;5053404;28;20057;-85
2021/09/20 10:00:05;;;;;;;4.75;3.90;;;;;;;;;;5048063;28;20052;-85
2021/09/20 10:02:32;;;;;;;9.18;4.60;;;;;;;;;;5049755;28;20155;-85
2021/09/20 10:04:59;;;;;;;30.55;10.02;;;;;;;;;;5048244;28;20040;-85
2021/09/20 10:07:28;;;;;;;8.77;4.90;;;;;;;;;;5049673;28;20385;-85
2021/09/20 10:09:54;;;;;;;15.60;5.40;;;;;;;;;;5009401;28;20010;-85
2021/09/20 10:12:21;;;;;;;6.82;4.40;;;;;;;;;;5008344;28;20163;-86
2021/09/20 10:14:47;;;;;;;4.65;3.50;;;;;;;;;;5019494;28;20041;-85
2021/09/20 10:17:18;;;;;;;7.20;4.13;;;;;;;;;;5027777;28;20057;-86
2021/09/20 10:19:43;;;;;;;4.80;4.05;;;;;;;;;;5048546;28;20017;-85
2021/09/20 10:22:08;;;;;;;4.60;3.70;;;;;;;;;;5049565;28;20071;-85
2021/09/20 10:24:33;;;;;;;4.05;3.60;;;;;;;;;;5047713;28;20104;-86
2021/09/20 10:26:59;;;;;;;5.18;3.90;;;;;;;;;;5047826;28;20025;-85
2021/09/20 10:29:24;;;;;;;6.25;3.78;;;;;;;;;;5043326;28;20164;-86
2021/09/20 10:31:51;;;;;;;5.95;4.30;;;;;;;;;;5051755;28;20017;-86
2021/09/20 10:34:19;;;;;;;8.93;4.97;;;;;;;;;;5053543;28;20035;-85
2021/09/20 10:36:46;;;;;;;39.83;8.75;;;;;;;;;;5053540;28;20033;-85
2021/09/20 10:39:11;;;;;;;30.55;6.35;;;;;;;;;;5053731;28;20032;-85
2021/09/20 10:41:36;;;;;;;6.30;4.53;;;;;;;;;;5053744;28;20071;-86
2021/09/20 10:44:04;;;;;;;6.13;4.78;;;;;;;;;;5052497;28;21076;-86
2021/09/20 10:46:32;;;;;;;6.65;4.60;;;;;;;;;;5053474;28;20010;-85
2021/09/20 10:48:59;;;;;;;6.20;4.50;;;;;;;;;;5053221;28;20159;-85
2021/09/20 10:51:35;;;;;;;6.82;4.10;;;;;;;;;;5051752;28;20476;-85
2021/09/20 10:54:09;;;;;;;6.68;4.50;;;;;;;;;;5022658;28;20036;-85
2021/09/20 10:56:35;;;;;;;6.22;4.90;;;;;;;;;;5052660;28;20025;-85
2021/09/20 10:59:00;;;;;;;7.05;4.70;;;;;;;;;;5053151;28;20025;-85
2021/09/20 11:01:30;;;;;;;7.37;4.13;;;;;;;;;;5052017;28;20025;-86
2021/09/20 11:03:59;;;;;;;9.70;4.80;;;;;;;;;;5042290;28;20009;-86
2021/09/20 11:06:27;;;;;;;4.93;4.45;;;;;;;;;;5052906;28;20043;-85
2021/09/20 11:08:58;;;;;;;8.95;4.60;;;;;;;;;;5052480;28;20013;-86
2021/09/20 11:11:42;;;;;;;8.65;4.53;;;;;;;;;;5051190;28;20056;-85
2021/09/20 11:14:09;;;;;;;4.95;3.83;;;;;;;;;;5051218;28;20033;-86
2021/09/20 11:16:54;;;;;;;4.68;4.18;;;;;;;;;;5050993;28;20428;-85
2021/09/20 11:19:39;;;;;;;7.22;4.38;;;;;;;;;;5053963;28;20017;-86
2021/09/20 11:22:12;;;;;;;7.65;4.30;;;;;;;;;;5011241;28;20030;-86
2021/09/20 11:24:38;;;;;;;9.32;4.68;;;;;;;;;;5012858;28;20437;-85
2021/09/20 11:27:05;;;;;;;4.97;4.00;;;;;;;;;;5039024;28;20040;-85
2021/09/20 11:29:30;;;;;;;10.60;6.38;;;;;;;;;;5051724;28;20021;-86
2021/09/20 11:31:56;;;;;;;9.50;4.80;;;;;;;;;;5052698;28;20036;-85
2021/09/20 11:34:27;;;;;;;79.35;21.70;;;;;;;;;;5052979;28;20021;-85
2021/09/20 11:36:53;;;;;;;54.22;15.55;;;;;;;;;;5053253;28;20710;-85
2021/09/20 11:39:19;;;;;;;90.07;24.07;;;;;;;;;;5050596;28;20036;-86
2021/09/20 11:41:46;;;;;;;6.32;4.30;;;;;;;;;;5051979;28;20319;-85
2021/09/20 11:44:14;;;;;;;23.50;8.73;;;;;;;;;;5051117;28;20021;-86
2021/09/20 11:46:39;;;;;;;20.65;6.63;;;;;;;;;;5051225;28;20229;-86
2021/09/20 11:49:09;;;;;;;436.83;102.50;;;;;;;;;;5051202;28;20119;-86
2021/09/20 11:51:35;;;;;;;69.75;17.38;;;;;;;;;;5054653;28;20600;-85
2021/09/20 11:54:00;;;;;;;90.55;23.13;;;;;;;;;;5052340;28;20048;-86
2021/09/20 11:56:28;;;;;;;25.10;10.02;;;;;;;;;;5050979;28;20421;-86
2021/09/20 11:58:55;;;;;;;74.90;20.30;;;;;;;;;;5052468;28;20484;-86
2021/09/20 12:01:25;;;;;;;9.73;4.95;;;;;;;;;;5051864;28;20025;-85
2021/09/20 12:03:51;;;;;;;7.22;4.85;;;;;;;;;;5052027;28;20071;-86
2021/09/20 12:06:16;;;;;;;6.93;4.93;;;;;;;;;;5052304;28;20492;-86
2021/09/20 12:08:41;;;;;;;7.13;4.03;;;;;;;;;;5050855;28;20113;-85
2021/09/20 12:11:06;;;;;;;6.07;4.63;;;;;;;;;;5050624;28;20321;-85
2021/09/20 12:13:35;;;;;;;7.03;4.57;;;;;;;;;;5051633;28;20794;-86
2021/09/20 12:16:05;;;;;;;5.20;4.20;;;;;;;;;;5050109;28;20255;-86
2021/09/20 12:18:30;;;;;;;4.55;4.10;;;;;;;;;;5051986;28;20024;-86
2021/09/20 12:21:05;;;;;;;13.80;4.22;;;;;;;;;;5051935;28;20044;-86
2021/09/20 12:23:32;;;;;;;4.93;4.43;;;;;;;;;;5045445;28;20013;-86
2021/09/20 12:25:59;;;;;;;12.57;5.47;;;;;;;;;;5035067;28;20016;-85
2021/09/20 12:28:27;;;;;;;5.43;4.45;;;;;;;;;;5051179;28;20029;-86
2021/09/20 12:33:23;;;;;;;4.80;4.38;;;;;;;;;;5007023;28;20665;-85
2021/09/20 12:35:48;;;;;;;7.10;4.43;;;;;;;;;;5012124;28;20076;-86
2021/09/20 12:38:13;;;;;;;7.75;4.13;;;;;;;;;;5011144;28;20022;-85
2021/09/20 12:40:39;;;;;;;5.18;4.55;;;;;;;;;;5011122;28;20040;-85
2021/09/20 12:43:14;;;;;;;4.70;4.23;;;;;;;;;;5012295;28;20040;-85
2021/09/20 12:45:47;;;;;;;4.78;4.10;;;;;;;;;;5010827;28;20257;-85
2021/09/20 12:48:13;;;;;;;6.03;4.43;;;;;;;;;;5010510;28;20017;-85
2021/09/20 12:50:39;;;;;;;8.20;3.78;;;;;;;;;;5010568;28;20133;-86
2021/09/20 12:53:05;;;;;;;4.85;3.85;;;;;;;;;;4990919;28;20040;-85
2021/09/20 12:55:40;;;;;;;5.70;4.22;;;;;;;;;;4973333;28;20026;-85
2021/09/20 12:58:06;;;;;;;6.93;4.45;;;;;;;;;;4992811;28;20522;-87
2021/09/20 13:00:36;;;;;;;5.28;3.92;;;;;;;;;;4993107;28;20034;-85
2021/09/20 13:03:12;;;;;;;4.13;3.83;;;;;;;;;;4973160;28;20498;-86
2021/09/20 13:05:42;;;;;;;4.95;4.45;;;;;;;;;;4992433;28;20120;-86
2021/09/20 13:08:07;;;;;;;4.80;4.03;;;;;;;;;;4992944;28;20029;-86
2021/09/20 13:10:32;;;;;;;3.72;3.42;;;;;;;;;;5011046;28;20018;-86
2021/09/20 13:12:58;;;;;;;4.90;3.47;;;;;;;;;;5010608;28;20096;-85
2021/09/20 13:15:25;;;;;;;4.10;2.90;;;;;;;;;;5010048;28;20257;-86
2021/09/20 13:17:55;;;;;;;5.78;3.60;;;;;;;;;;5010032;28;20097;-85
2021/09/20 13:20:22;;;;;;;3.50;3.20;;;;;;;;;;5009879;28;20022;-85
2021/09/20 13:22:50;;;;;;;3.75;3.45;;;;;;;;;;4992274;28;20413;-86
2021/09/20 13:25:21;;;;;;;3.42;3.13;;;;;;;;;;5010910;28;20030;-86
2021/09/20 13:27:47;;;;;;;3.72;3.42;;;;;;;;;;4979766;28;20026;-86
2021/09/20 13:30:16;;;;;;;3.40;3.10;;;;;;;;;;4981234;28;20022;-86
2021/09/20 13:32:42;;;;;;;4.27;2.77;;;;;;;;;;4972233;28;20082;-86
2021/09/20 13:35:17;;;;;;;3.80;3.42;;;;;;;;;;4972027;28;20389;-86
2021/09/20 13:37:42;;;;;;;3.05;2.75;;;;;;;;;;4973069;28;20092;-86
2021/09/20 13:40:08;;;;;;;4.10;2.93;;;;;;;;;;4995993;28;20096;-86
2021/09/20 13:42:33;;;;;;;3.90;3.40;;;;;;;;;;5009774;28;20698;-85
2021/09/20 13:44:58;;;;;;;3.40;3.10;;;;;;;;;;5010287;28;20032;-86
2021/09/20 13:47:24;;;;;;;3.17;2.87;;;;;;;;;;4976129;28;20117;-86
2021/09/20 13:49:49;;;;;;;3.38;3.08;;;;;;;;;;4972773;28;20470;-86
2021/09/20 13:52:14;;;;;;;3.63;2.90;;;;;;;;;;4990745;28;20483;-86
2021/09/20 13:54:39;;;;;;;3.20;3.00;;;;;;;;;;5000442;28;20753;-86
2021/09/20 13:57:04;;;;;;;4.43;3.17;;;;;;;;;;5009444;28;20029;-86
2021/09/20 13:59:30;;;;;;;4.27;3.17;;;;;;;;;;5009751;28;20025;-86
2021/09/20 14:01:55;;;;;;;3.30;3.00;;;;;;;;;;4991455;28;20032;-86
2021/09/20 14:04:20;;;;;;;4.53;3.13;;;;;;;;;;5009240;28;20080;-86
2021/09/20 14:06:45;;;;;;;3.60;3.30;;;;;;;;;;5008445;28;20057;-86
2021/09/20 14:09:10;;;;;;;5.17;3.03;;;;;;;;;;4978500;28;20050;-86
2021/09/20 14:11:36;;;;;;;5.33;2.87;;;;;;;;;;4971251;28;20332;-86
2021/09/20 14:14:01;;;;;;;7.23;3.27;;;;;;;;;;4972191;28;20754;-86
2021/09/20 14:16:26;;;;;;;6.23;2.87;;;;;;;;;;4989599;28;20027;-86
2021/09/20 14:18:51;;;;;;;4.10;2.80;;;;;;;;;;5001624;28;20265;-86
2021/09/20 14:21:17;;;;;;;4.53;3.30;;;;;;;;;;5009330;28;20080;-86
2021/09/20 14:23:42;;;;;;;4.30;2.70;;;;;;;;;;5009586;28;20971;-86
2021/09/20 14:26:07;;;;;;;4.33;2.70;;;;;;;;;;4992537;28;20049;-86
2021/09/20 14:28:32;;;;;;;3.38;3.00;;;;;;;;;;4982712;28;20045;-86
2021/09/20 14:30:58;;;;;;;4.60;2.90;;;;;;;;;;4989507;28;20033;-86
2021/09/20 14:33:23;;;;;;;5.33;2.90;;;;;;;;;;5005330;28;20775;-86
2021/09/20 14:35:48;;;;;;;7.23;3.00;;;;;;;;;;5006699;28;20253;-86
2021/09/20 14:38:13;;;;;;;4.00;2.53;;;;;;;;;;4987216;28;20029;-86